Gratiot, Wisconsin
Current Conditions -  °F | °C
As of 11:55 PM on Thursday 30 Oct 2014 (Local Time) from KEFT Reporting Station
Overcast Overcast  
Wind Chill:   Ceiling: 3000
Heat Index:   Visibility: 10mi
Dew Point:   Wind: 12mph
Humidity: 76%   Direction: 320°NW
Pressure: 30.06"   Gusts: 18mph
Location:  42.58°N, 90.02°W
Report Text: KEFT 310455Z AUTO 32010G16KT 10SM BKN030 OVC039 07/03 A3006 RMK AO2
Loading
Personal Weather Stations






























Interactive Weather Map
Tropical Storm Tracking
New forecast layout! Learn more

10-Day Weather Forecast

Advertisements
Track Severe Weather on mobile